sensor_id;sensor_type;location;lat;lon;timestamp;P1;durP1;ratioP1;P2;durP2;ratioP2
15183;SDS011;7693;49.266;7.104;2023-09-07T05:13:26;8.80;;;7.63;;
15183;SDS011;7693;49.266;7.104;2023-09-07T05:15:52;7.32;;;6.63;;
15183;SDS011;7693;49.266;7.104;2023-09-07T05:18:25;7.88;;;6.45;;
15183;SDS011;7693;49.266;7.104;2023-09-07T05:20:50;7.03;;;6.43;;
15183;SDS011;7693;49.266;7.104;2023-09-07T05:25:45;6.57;;;6.13;;
15183;SDS011;7693;49.266;7.104;2023-09-07T05:28:14;12.77;;;8.13;;
15183;SDS011;7693;49.266;7.104;2023-09-07T05:30:40;7.55;;;6.93;;
15183;SDS011;7693;49.266;7.104;2023-09-07T05:33:07;8.60;;;7.72;;
15183;SDS011;7693;49.266;7.104;2023-09-07T05:35:34;9.57;;;8.50;;
15183;SDS011;7693;49.266;7.104;2023-09-07T05:38:00;11.88;;;9.13;;
15183;SDS011;7693;49.266;7.104;2023-09-07T05:40:25;10.45;;;8.40;;
15183;SDS011;7693;49.266;7.104;2023-09-07T05:42:51;10.15;;;8.98;;
15183;SDS011;7693;49.266;7.104;2023-09-07T05:45:17;9.30;;;8.30;;
15183;SDS011;7693;49.266;7.104;2023-09-07T05:47:42;9.38;;;8.48;;
15183;SDS011;7693;49.266;7.104;2023-09-07T05:50:08;8.13;;;7.43;;
15183;SDS011;7693;49.266;7.104;2023-09-07T05:52:34;7.70;;;7.10;;
15183;SDS011;7693;49.266;7.104;2023-09-07T05:54:59;7.22;;;6.55;;
15183;SDS011;7693;49.266;7.104;2023-09-07T05:57:25;12.10;;;6.75;;
15183;SDS011;7693;49.266;7.104;2023-09-07T05:59:50;7.00;;;6.30;;
15183;SDS011;7693;49.266;7.104;2023-09-07T06:02:16;7.00;;;6.40;;
15183;SDS011;7693;49.266;7.104;2023-09-07T06:04:41;6.53;;;6.03;;
15183;SDS011;7693;49.266;7.104;2023-09-07T06:07:07;6.32;;;5.70;;
15183;SDS011;7693;49.266;7.104;2023-09-07T06:09:32;7.75;;;5.50;;
15183;SDS011;7693;49.266;7.104;2023-09-07T06:11:58;6.07;;;5.65;;
15183;SDS011;7693;49.266;7.104;2023-09-07T06:14:24;5.47;;;4.97;;
15183;SDS011;7693;49.266;7.104;2023-09-07T06:16:49;5.85;;;5.35;;
15183;SDS011;7693;49.266;7.104;2023-09-07T06:19:15;5.70;;;5.22;;
15183;SDS011;7693;49.266;7.104;2023-09-07T06:21:41;5.53;;;5.20;;
15183;SDS011;7693;49.266;7.104;2023-09-07T06:24:08;5.28;;;4.88;;
15183;SDS011;7693;49.266;7.104;2023-09-07T06:26:33;5.72;;;5.22;;
15183;SDS011;7693;49.266;7.104;2023-09-07T06:28:59;5.95;;;5.55;;
15183;SDS011;7693;49.266;7.104;2023-09-07T06:31:25;6.38;;;5.53;;
15183;SDS011;7693;49.266;7.104;2023-09-07T06:33:50;5.30;;;5.03;;
15183;SDS011;7693;49.266;7.104;2023-09-07T06:36:16;5.03;;;4.68;;
15183;SDS011;7693;49.266;7.104;2023-09-07T06:38:41;5.93;;;5.47;;
15183;SDS011;7693;49.266;7.104;2023-09-07T06:41:07;5.80;;;5.40;;
15183;SDS011;7693;49.266;7.104;2023-09-07T06:43:34;5.90;;;5.50;;
15183;SDS011;7693;49.266;7.104;2023-09-07T06:46:05;7.70;;;5.18;;
15183;SDS011;7693;49.266;7.104;2023-09-07T06:48:33;5.40;;;4.85;;
15183;SDS011;7693;49.266;7.104;2023-09-07T06:51:05;5.30;;;4.80;;
15183;SDS011;7693;49.266;7.104;2023-09-07T06:53:31;6.03;;;5.30;;
15183;SDS011;7693;49.266;7.104;2023-09-07T06:55:57;5.68;;;4.97;;
15183;SDS011;7693;49.266;7.104;2023-09-07T06:58:24;5.47;;;5.03;;
15183;SDS011;7693;49.266;7.104;2023-09-07T07:00:49;5.35;;;4.78;;
15183;SDS011;7693;49.266;7.104;2023-09-07T07:03:15;5.50;;;5.20;;
15183;SDS011;7693;49.266;7.104;2023-09-07T07:05:40;6.53;;;4.63;;
15183;SDS011;7693;49.266;7.104;2023-09-07T07:08:07;5.07;;;4.72;;
15183;SDS011;7693;49.266;7.104;2023-09-07T07:10:33;5.53;;;5.03;;
15183;SDS011;7693;49.266;7.104;2023-09-07T07:12:58;5.40;;;5.00;;
15183;SDS011;7693;49.266;7.104;2023-09-07T07:15:25;5.03;;;4.63;;
15183;SDS011;7693;49.266;7.104;2023-09-07T07:17:50;6.25;;;4.93;;
15183;SDS011;7693;49.266;7.104;2023-09-07T07:20:16;6.03;;;4.60;;
15183;SDS011;7693;49.266;7.104;2023-09-07T07:22:41;5.40;;;5.03;;
15183;SDS011;7693;49.266;7.104;2023-09-07T07:25:07;5.80;;;4.65;;
15183;SDS011;7693;49.266;7.104;2023-09-07T07:27:33;5.18;;;4.72;;
15183;SDS011;7693;49.266;7.104;2023-09-07T07:29:58;9.10;;;4.63;;
15183;SDS011;7693;49.266;7.104;2023-09-07T07:32:24;5.13;;;4.72;;
15183;SDS011;7693;49.266;7.104;2023-09-07T07:34:50;7.50;;;4.70;;
15183;SDS011;7693;49.266;7.104;2023-09-07T07:37:15;4.57;;;4.18;;
15183;SDS011;7693;49.266;7.104;2023-09-07T07:39:41;6.20;;;4.35;;
15183;SDS011;7693;49.266;7.104;2023-09-07T07:42:06;5.50;;;4.60;;
15183;SDS011;7693;49.266;7.104;2023-09-07T07:44:32;4.82;;;4.47;;
15183;SDS011;7693;49.266;7.104;2023-09-07T07:46:57;6.55;;;4.32;;
15183;SDS011;7693;49.266;7.104;2023-09-07T07:49:23;4.30;;;4.00;;
15183;SDS011;7693;49.266;7.104;2023-09-07T07:51:49;7.85;;;4.35;;
15183;SDS011;7693;49.266;7.104;2023-09-07T07:54:16;5.72;;;4.38;;
15183;SDS011;7693;49.266;7.104;2023-09-07T07:56:42;4.65;;;4.22;;
15183;SDS011;7693;49.266;7.104;2023-09-07T07:59:07;4.63;;;4.30;;
15183;SDS011;7693;49.266;7.104;2023-09-07T08:01:33;4.50;;;4.10;;
15183;SDS011;7693;49.266;7.104;2023-09-07T08:03:58;4.13;;;3.83;;
15183;SDS011;7693;49.266;7.104;2023-09-07T08:06:24;5.72;;;4.18;;
15183;SDS011;7693;49.266;7.104;2023-09-07T08:08:49;4.85;;;4.20;;
15183;SDS011;7693;49.266;7.104;2023-09-07T08:11:15;4.20;;;3.90;;
15183;SDS011;7693;49.266;7.104;2023-09-07T08:13:41;4.28;;;3.90;;
15183;SDS011;7693;49.266;7.104;2023-09-07T08:16:10;4.45;;;4.10;;
15183;SDS011;7693;49.266;7.104;2023-09-07T08:18:36;6.18;;;4.15;;
15183;SDS011;7693;49.266;7.104;2023-09-07T08:21:01;4.38;;;4.05;;
15183;SDS011;7693;49.266;7.104;2023-09-07T08:23:27;4.43;;;4.03;;
15183;SDS011;7693;49.266;7.104;2023-09-07T08:25:53;5.97;;;4.20;;
15183;SDS011;7693;49.266;7.104;2023-09-07T08:28:19;4.95;;;4.00;;
15183;SDS011;7693;49.266;7.104;2023-09-07T08:30:48;4.00;;;3.80;;
15183;SDS011;7693;49.266;7.104;2023-09-07T08:33:15;3.97;;;3.67;;
15183;SDS011;7693;49.266;7.104;2023-09-07T08:35:42;4.10;;;3.90;;
15183;SDS011;7693;49.266;7.104;2023-09-07T08:38:09;3.92;;;3.67;;
15183;SDS011;7693;49.266;7.104;2023-09-07T08:40:36;4.25;;;3.92;;
15183;SDS011;7693;49.266;7.104;2023-09-07T08:43:05;5.78;;;4.07;;
15183;SDS011;7693;49.266;7.104;2023-09-07T08:45:33;4.57;;;4.13;;
15183;SDS011;7693;49.266;7.104;2023-09-07T08:48:06;4.22;;;3.90;;
15183;SDS011;7693;49.266;7.104;2023-09-07T08:50:34;5.28;;;3.67;;
15183;SDS011;7693;49.266;7.104;2023-09-07T08:53:03;3.63;;;3.42;;
15183;SDS011;7693;49.266;7.104;2023-09-07T08:55:29;3.92;;;3.72;;
15183;SDS011;7693;49.266;7.104;2023-09-07T08:57:55;4.10;;;3.72;;
15183;SDS011;7693;49.266;7.104;2023-09-07T09:00:21;3.88;;;3.63;;
15183;SDS011;7693;49.266;7.104;2023-09-07T09:02:48;4.85;;;3.92;;
15183;SDS011;7693;49.266;7.104;2023-09-07T09:05:14;5.18;;;3.88;;
15183;SDS011;7693;49.266;7.104;2023-09-07T09:07:43;4.38;;;3.80;;
15183;SDS011;7693;49.266;7.104;2023-09-07T09:10:09;3.63;;;3.40;;
15183;SDS011;7693;49.266;7.104;2023-09-07T09:12:34;4.90;;;3.80;;
15183;SDS011;7693;49.266;7.104;2023-09-07T09:15:00;4.32;;;3.92;;
15183;SDS011;7693;49.266;7.104;2023-09-07T09:17:28;4.18;;;3.78;;
15183;SDS011;7693;49.266;7.104;2023-09-07T09:19:54;4.13;;;3.78;;
15183;SDS011;7693;49.266;7.104;2023-09-07T09:22:20;5.38;;;3.45;;
15183;SDS011;7693;49.266;7.104;2023-09-07T09:24:49;4.07;;;3.60;;
15183;SDS011;7693;49.266;7.104;2023-09-07T09:27:15;3.92;;;3.53;;
15183;SDS011;7693;49.266;7.104;2023-09-07T09:29:42;3.85;;;3.60;;
15183;SDS011;7693;49.266;7.104;2023-09-07T09:32:07;3.88;;;3.40;;
15183;SDS011;7693;49.266;7.104;2023-09-07T09:34:33;3.75;;;3.38;;
15183;SDS011;7693;49.266;7.104;2023-09-07T09:37:01;5.78;;;3.50;;
15183;SDS011;7693;49.266;7.104;2023-09-07T09:39:28;5.47;;;3.65;;
15183;SDS011;7693;49.266;7.104;2023-09-07T09:41:54;4.07;;;3.28;;
15183;SDS011;7693;49.266;7.104;2023-09-07T09:44:21;6.10;;;3.35;;
15183;SDS011;7693;49.266;7.104;2023-09-07T09:46:53;4.38;;;3.70;;
15183;SDS011;7693;49.266;7.104;2023-09-07T09:49:21;3.50;;;3.30;;
15183;SDS011;7693;49.266;7.104;2023-09-07T09:51:50;3.50;;;3.20;;
15183;SDS011;7693;49.266;7.104;2023-09-07T09:54:16;4.22;;;3.20;;
15183;SDS011;7693;49.266;7.104;2023-09-07T09:56:43;3.55;;;3.35;;
15183;SDS011;7693;49.266;7.104;2023-09-07T13:18:24;3.15;;;2.95;;
15183;SDS011;7693;49.266;7.104;2023-09-07T13:20:50;3.50;;;3.30;;
15183;SDS011;7693;49.266;7.104;2023-09-07T13:23:27;3.05;;;2.90;;
15183;SDS011;7693;49.266;7.104;2023-09-07T13:25:57;3.70;;;3.00;;
15183;SDS011;7693;49.266;7.104;2023-09-07T13:28:23;3.08;;;2.97;;
15183;SDS011;7693;49.266;7.104;2023-09-07T13:30:50;2.75;;;2.63;;
15183;SDS011;7693;49.266;7.104;2023-09-07T13:33:15;3.47;;;2.75;;
15183;SDS011;7693;49.266;7.104;2023-09-07T13:35:41;4.72;;;2.55;;
15183;SDS011;7693;49.266;7.104;2023-09-07T13:38:07;2.97;;;2.78;;
15183;SDS011;7693;49.266;7.104;2023-09-07T13:40:32;2.83;;;2.72;;
15183;SDS011;7693;49.266;7.104;2023-09-07T13:42:58;3.15;;;3.05;;
15183;SDS011;7693;49.266;7.104;2023-09-07T13:45:24;3.20;;;2.90;;
15183;SDS011;7693;49.266;7.104;2023-09-07T13:47:49;3.58;;;2.88;;
15183;SDS011;7693;49.266;7.104;2023-09-07T13:50:15;3.20;;;3.05;;
15183;SDS011;7693;49.266;7.104;2023-09-07T13:52:41;3.88;;;3.47;;
15183;SDS011;7693;49.266;7.104;2023-09-07T13:55:06;3.10;;;2.90;;
15183;SDS011;7693;49.266;7.104;2023-09-07T13:57:33;2.92;;;2.80;;
15183;SDS011;7693;49.266;7.104;2023-09-07T13:59:59;2.90;;;2.80;;
15183;SDS011;7693;49.266;7.104;2023-09-07T14:02:25;3.38;;;3.08;;
15183;SDS011;7693;49.266;7.104;2023-09-07T14:04:51;2.88;;;2.67;;
15183;SDS011;7693;49.266;7.104;2023-09-07T14:07:17;3.35;;;3.15;;
15183;SDS011;7693;49.266;7.104;2023-09-07T14:09:43;3.00;;;2.80;;
15183;SDS011;7693;49.266;7.104;2023-09-07T14:12:09;3.05;;;2.85;;
15183;SDS011;7693;49.266;7.104;2023-09-07T14:14:34;3.17;;;3.00;;
15183;SDS011;7693;49.266;7.104;2023-09-07T14:17:00;3.35;;;2.55;;
15183;SDS011;7693;49.266;7.104;2023-09-07T14:19:26;3.38;;;3.28;;
15183;SDS011;7693;49.266;7.104;2023-09-07T14:21:55;3.25;;;3.05;;
15183;SDS011;7693;49.266;7.104;2023-09-07T14:24:24;3.40;;;2.67;;
15183;SDS011;7693;49.266;7.104;2023-09-07T14:26:50;2.85;;;2.75;;
15183;SDS011;7693;49.266;7.104;2023-09-07T14:29:16;3.00;;;2.80;;
15183;SDS011;7693;49.266;7.104;2023-09-07T14:31:42;3.17;;;2.97;;
15183;SDS011;7693;49.266;7.104;2023-09-07T14:34:08;3.55;;;3.25;;
15183;SDS011;7693;49.266;7.104;2023-09-07T14:36:35;3.03;;;2.78;;
15183;SDS011;7693;49.266;7.104;2023-09-07T14:39:01;5.10;;;3.00;;
15183;SDS011;7693;49.266;7.104;2023-09-07T14:41:27;3.08;;;2.80;;
15183;SDS011;7693;49.266;7.104;2023-09-07T14:43:55;5.00;;;2.95;;
15183;SDS011;7693;49.266;7.104;2023-09-07T14:46:20;2.80;;;2.70;;
15183;SDS011;7693;49.266;7.104;2023-09-07T14:48:48;4.00;;;3.40;;
15183;SDS011;7693;49.266;7.104;2023-09-07T14:51:14;3.17;;;2.78;;
15183;SDS011;7693;49.266;7.104;2023-09-07T14:53:40;3.35;;;3.10;;
15183;SDS011;7693;49.266;7.104;2023-09-07T14:56:05;3.88;;;3.20;;
15183;SDS011;7693;49.266;7.104;2023-09-07T14:58:31;3.75;;;3.30;;
15183;SDS011;7693;49.266;7.104;2023-09-07T15:00:57;5.78;;;3.10;;
15183;SDS011;7693;49.266;7.104;2023-09-07T15:03:23;5.65;;;3.08;;
15183;SDS011;7693;49.266;7.104;2023-09-07T15:05:49;2.95;;;2.85;;
15183;SDS011;7693;49.266;7.104;2023-09-07T15:08:15;3.08;;;2.85;;
15183;SDS011;7693;49.266;7.104;2023-09-07T15:10:40;2.85;;;2.75;;
15183;SDS011;7693;49.266;7.104;2023-09-07T15:13:06;3.08;;;2.60;;
15183;SDS011;7693;49.266;7.104;2023-09-07T15:15:33;3.22;;;3.03;;
15183;SDS011;7693;49.266;7.104;2023-09-07T15:18:02;4.45;;;3.08;;
15183;SDS011;7693;49.266;7.104;2023-09-07T15:20:28;3.10;;;3.00;;
15183;SDS011;7693;49.266;7.104;2023-09-07T15:22:54;3.60;;;3.15;;
15183;SDS011;7693;49.266;7.104;2023-09-07T15:25:19;3.33;;;3.03;;
15183;SDS011;7693;49.266;7.104;2023-09-07T15:27:45;2.80;;;2.70;;
15183;SDS011;7693;49.266;7.104;2023-09-07T15:30:12;5.55;;;3.10;;
15183;SDS011;7693;49.266;7.104;2023-09-07T15:32:38;5.35;;;3.20;;
15183;SDS011;7693;49.266;7.104;2023-09-07T15:35:05;4.43;;;3.03;;
15183;SDS011;7693;49.266;7.104;2023-09-07T15:37:33;3.40;;;3.30;;
15183;SDS011;7693;49.266;7.104;2023-09-07T15:39:59;3.42;;;3.17;;
15183;SDS011;7693;49.266;7.104;2023-09-07T15:42:25;3.38;;;3.28;;
15183;SDS011;7693;49.266;7.104;2023-09-07T15:44:51;3.22;;;3.10;;
15183;SDS011;7693;49.266;7.104;2023-09-07T15:47:17;3.13;;;2.92;;
15183;SDS011;7693;49.266;7.104;2023-09-07T15:49:42;3.28;;;3.10;;
15183;SDS011;7693;49.266;7.104;2023-09-07T15:52:10;4.60;;;3.55;;
15183;SDS011;7693;49.266;7.104;2023-09-07T15:54:36;3.92;;;3.22;;
15183;SDS011;7693;49.266;7.104;2023-09-07T15:57:02;3.97;;;3.33;;
15183;SDS011;7693;49.266;7.104;2023-09-07T15:59:28;3.85;;;2.97;;
15183;SDS011;7693;49.266;7.104;2023-09-07T16:01:55;5.70;;;3.28;;
15183;SDS011;7693;49.266;7.104;2023-09-07T16:04:21;4.13;;;3.30;;
15183;SDS011;7693;49.266;7.104;2023-09-07T16:06:48;3.47;;;3.30;;
15183;SDS011;7693;49.266;7.104;2023-09-07T16:09:13;3.60;;;3.40;;
15183;SDS011;7693;49.266;7.104;2023-09-07T16:11:40;3.55;;;3.35;;
15183;SDS011;7693;49.266;7.104;2023-09-07T16:14:05;3.38;;;3.20;;
15183;SDS011;7693;49.266;7.104;2023-09-07T16:16:31;3.47;;;3.17;;
15183;SDS011;7693;49.266;7.104;2023-09-07T16:18:58;4.03;;;3.13;;
15183;SDS011;7693;49.266;7.104;2023-09-07T16:21:24;3.25;;;2.92;;
15183;SDS011;7693;49.266;7.104;2023-09-07T16:23:50;3.10;;;2.90;;
15183;SDS011;7693;49.266;7.104;2023-09-07T16:26:15;5.30;;;3.22;;
15183;SDS011;7693;49.266;7.104;2023-09-07T16:28:41;3.10;;;2.90;;
15183;SDS011;7693;49.266;7.104;2023-09-07T16:31:07;3.55;;;3.25;;
15183;SDS011;7693;49.266;7.104;2023-09-07T16:33:32;3.58;;;3.38;;
15183;SDS011;7693;49.266;7.104;2023-09-07T16:35:58;3.22;;;2.92;;
15183;SDS011;7693;49.266;7.104;2023-09-07T16:38:25;3.30;;;3.10;;
15183;SDS011;7693;49.266;7.104;2023-09-07T16:40:51;3.40;;;3.15;;
15183;SDS011;7693;49.266;7.104;2023-09-07T16:43:16;3.83;;;3.53;;
15183;SDS011;7693;49.266;7.104;2023-09-07T16:45:42;4.10;;;3.25;;
15183;SDS011;7693;49.266;7.104;2023-09-07T16:48:07;3.40;;;3.20;;
15183;SDS011;7693;49.266;7.104;2023-09-07T16:50:33;3.13;;;3.03;;
15183;SDS011;7693;49.266;7.104;2023-09-07T16:52:58;3.47;;;3.17;;
15183;SDS011;7693;49.266;7.104;2023-09-07T16:55:24;4.18;;;3.13;;
15183;SDS011;7693;49.266;7.104;2023-09-07T16:57:50;5.05;;;3.30;;
15183;SDS011;7693;49.266;7.104;2023-09-07T17:00:15;3.25;;;3.15;;
15183;SDS011;7693;49.266;7.104;2023-09-07T17:02:41;3.15;;;3.05;;
15183;SDS011;7693;49.266;7.104;2023-09-07T17:05:07;3.42;;;3.30;;
15183;SDS011;7693;49.266;7.104;2023-09-07T17:07:35;8.45;;;3.58;;
15183;SDS011;7693;49.266;7.104;2023-09-07T17:10:02;4.15;;;3.85;;
15183;SDS011;7693;49.266;7.104;2023-09-07T17:12:27;3.35;;;3.22;;
15183;SDS011;7693;49.266;7.104;2023-09-07T17:14:53;3.67;;;3.38;;
15183;SDS011;7693;49.266;7.104;2023-09-07T17:17:19;3.83;;;3.55;;
15183;SDS011;7693;49.266;7.104;2023-09-07T17:19:44;4.00;;;3.80;;
15183;SDS011;7693;49.266;7.104;2023-09-07T17:22:10;3.88;;;3.60;;
15183;SDS011;7693;49.266;7.104;2023-09-07T17:24:37;4.20;;;3.83;;
15183;SDS011;7693;49.266;7.104;2023-09-07T17:27:02;3.90;;;3.60;;
15183;SDS011;7693;49.266;7.104;2023-09-07T17:29:28;4.47;;;2.95;;
15183;SDS011;7693;49.266;7.104;2023-09-07T17:31:54;6.20;;;3.70;;
15183;SDS011;7693;49.266;7.104;2023-09-07T17:34:19;5.45;;;3.45;;
15183;SDS011;7693;49.266;7.104;2023-09-07T17:36:48;3.38;;;3.28;;
15183;SDS011;7693;49.266;7.104;2023-09-07T17:39:14;3.55;;;3.25;;
15183;SDS011;7693;49.266;7.104;2023-09-07T17:41:39;3.38;;;3.20;;
15183;SDS011;7693;49.266;7.104;2023-09-07T17:44:05;3.65;;;3.42;;
15183;SDS011;7693;49.266;7.104;2023-09-07T17:46:31;3.53;;;3.22;;
15183;SDS011;7693;49.266;7.104;2023-09-07T17:48:57;3.28;;;3.17;;
15183;SDS011;7693;49.266;7.104;2023-09-07T17:51:22;3.40;;;3.20;;
15183;SDS011;7693;49.266;7.104;2023-09-07T17:53:48;3.95;;;3.65;;
15183;SDS011;7693;49.266;7.104;2023-09-07T17:56:14;3.60;;;3.30;;
15183;SDS011;7693;49.266;7.104;2023-09-07T17:58:40;3.85;;;3.58;;
15183;SDS011;7693;49.266;7.104;2023-09-07T18:01:11;3.70;;;3.50;;
15183;SDS011;7693;49.266;7.104;2023-09-07T18:03:37;4.00;;;3.70;;
15183;SDS011;7693;49.266;7.104;2023-09-07T18:06:03;3.70;;;3.38;;
15183;SDS011;7693;49.266;7.104;2023-09-07T18:08:29;3.53;;;3.05;;
15183;SDS011;7693;49.266;7.104;2023-09-07T18:10:55;5.25;;;3.50;;
15183;SDS011;7693;49.266;7.104;2023-09-07T18:13:21;4.03;;;3.72;;
15183;SDS011;7693;49.266;7.104;2023-09-07T18:15:46;3.97;;;3.78;;
15183;SDS011;7693;49.266;7.104;2023-09-07T18:18:12;4.03;;;3.60;;
15183;SDS011;7693;49.266;7.104;2023-09-07T18:20:39;4.95;;;3.70;;
15183;SDS011;7693;49.266;7.104;2023-09-07T18:23:05;3.40;;;3.20;;
15183;SDS011;7693;49.266;7.104;2023-09-07T18:25:36;3.63;;;3.45;;
15183;SDS011;7693;49.266;7.104;2023-09-07T18:28:03;4.00;;;3.67;;
15183;SDS011;7693;49.266;7.104;2023-09-07T18:30:30;3.75;;;3.45;;
15183;SDS011;7693;49.266;7.104;2023-09-07T18:32:59;5.22;;;4.13;;
15183;SDS011;7693;49.266;7.104;2023-09-07T18:35:28;3.78;;;3.58;;
15183;SDS011;7693;49.266;7.104;2023-09-07T18:37:57;3.90;;;3.70;;
15183;SDS011;7693;49.266;7.104;2023-09-07T18:40:23;4.00;;;3.80;;
15183;SDS011;7693;49.266;7.104;2023-09-07T18:42:49;4.22;;;4.03;;
15183;SDS011;7693;49.266;7.104;2023-09-07T18:45:17;4.10;;;3.70;;
15183;SDS011;7693;49.266;7.104;2023-09-07T18:47:43;5.30;;;3.83;;
15183;SDS011;7693;49.266;7.104;2023-09-07T18:50:08;5.90;;;4.53;;
15183;SDS011;7693;49.266;7.104;2023-09-07T18:52:34;5.63;;;4.10;;
15183;SDS011;7693;49.266;7.104;2023-09-07T18:55:01;4.38;;;4.07;;
15183;SDS011;7693;49.266;7.104;2023-09-07T18:57:30;4.32;;;4.07;;
15183;SDS011;7693;49.266;7.104;2023-09-07T18:59:56;4.40;;;4.18;;
15183;SDS011;7693;49.266;7.104;2023-09-07T19:02:21;4.20;;;3.97;;
15183;SDS011;7693;49.266;7.104;2023-09-07T19:04:47;4.43;;;4.03;;
15183;SDS011;7693;49.266;7.104;2023-09-07T19:07:14;5.10;;;4.65;;
15183;SDS011;7693;49.266;7.104;2023-09-07T19:09:44;5.07;;;4.78;;
15183;SDS011;7693;49.266;7.104;2023-09-07T19:12:11;6.03;;;5.40;;
15183;SDS011;7693;49.266;7.104;2023-09-07T19:14:37;5.72;;;5.22;;
15183;SDS011;7693;49.266;7.104;2023-09-07T19:17:03;5.70;;;5.30;;
15183;SDS011;7693;49.266;7.104;2023-09-07T19:19:29;7.35;;;5.55;;
15183;SDS011;7693;49.266;7.104;2023-09-07T19:21:54;6.65;;;4.97;;
15183;SDS011;7693;49.266;7.104;2023-09-07T19:24:20;6.40;;;5.05;;
15183;SDS011;7693;49.266;7.104;2023-09-07T19:26:46;5.95;;;5.38;;
15183;SDS011;7693;49.266;7.104;2023-09-07T19:29:14;5.25;;;4.72;;
15183;SDS011;7693;49.266;7.104;2023-09-07T19:31:39;5.53;;;5.13;;
15183;SDS011;7693;49.266;7.104;2023-09-07T19:34:05;5.22;;;4.82;;
15183;SDS011;7693;49.266;7.104;2023-09-07T19:36:31;5.55;;;5.07;;
15183;SDS011;7693;49.266;7.104;2023-09-07T19:38:57;5.07;;;4.72;;
15183;SDS011;7693;49.266;7.104;2023-09-07T19:41:24;5.22;;;4.80;;
15183;SDS011;7693;49.266;7.104;2023-09-07T19:43:53;5.15;;;4.88;;
15183;SDS011;7693;49.266;7.104;2023-09-07T19:46:18;5.28;;;4.80;;
15183;SDS011;7693;49.266;7.104;2023-09-07T19:48:45;5.55;;;5.05;;
15183;SDS011;7693;49.266;7.104;2023-09-07T19:51:14;5.20;;;4.50;;
15183;SDS011;7693;49.266;7.104;2023-09-07T19:53:40;5.60;;;5.10;;
15183;SDS011;7693;49.266;7.104;2023-09-07T19:56:07;5.03;;;4.72;;
15183;SDS011;7693;49.266;7.104;2023-09-07T19:58:34;5.53;;;5.13;;
15183;SDS011;7693;49.266;7.104;2023-09-07T20:01:00;5.25;;;4.82;;
15183;SDS011;7693;49.266;7.104;2023-09-07T20:03:26;7.15;;;5.13;;
15183;SDS011;7693;49.266;7.104;2023-09-07T20:05:52;5.90;;;5.07;;
15183;SDS011;7693;49.266;7.104;2023-09-07T20:08:18;5.38;;;4.88;;
15183;SDS011;7693;49.266;7.104;2023-09-07T20:10:43;5.72;;;5.07;;
15183;SDS011;7693;49.266;7.104;2023-09-07T20:13:09;5.53;;;5.03;;
15183;SDS011;7693;49.266;7.104;2023-09-07T20:15:38;6.20;;;5.07;;
15183;SDS011;7693;49.266;7.104;2023-09-07T20:18:04;5.93;;;5.35;;
15183;SDS011;7693;49.266;7.104;2023-09-07T20:20:33;5.55;;;5.22;;
15183;SDS011;7693;49.266;7.104;2023-09-07T20:22:59;5.97;;;5.57;;
15183;SDS011;7693;49.266;7.104;2023-09-07T20:25:27;6.20;;;5.60;;
15183;SDS011;7693;49.266;7.104;2023-09-07T20:27:53;6.45;;;5.47;;
15183;SDS011;7693;49.266;7.104;2023-09-07T20:30:19;5.90;;;5.40;;
15183;SDS011;7693;49.266;7.104;2023-09-07T20:32:44;6.20;;;5.60;;
15183;SDS011;7693;49.266;7.104;2023-09-07T20:35:10;6.05;;;5.55;;
15183;SDS011;7693;49.266;7.104;2023-09-07T20:37:36;5.07;;;4.72;;
15183;SDS011;7693;49.266;7.104;2023-09-07T20:40:02;5.68;;;5.40;;
15183;SDS011;7693;49.266;7.104;2023-09-07T20:42:30;8.43;;;5.60;;
15183;SDS011;7693;49.266;7.104;2023-09-07T20:44:56;6.63;;;6.00;;
15183;SDS011;7693;49.266;7.104;2023-09-07T20:47:22;6.15;;;5.60;;
15183;SDS011;7693;49.266;7.104;2023-09-07T20:49:48;8.43;;;5.80;;
15183;SDS011;7693;49.266;7.104;2023-09-07T20:52:13;6.57;;;6.07;;
15183;SDS011;7693;49.266;7.104;2023-09-07T20:54:39;6.53;;;5.93;;
15183;SDS011;7693;49.266;7.104;2023-09-07T20:57:06;6.65;;;6.25;;
15183;SDS011;7693;49.266;7.104;2023-09-07T20:59:32;7.20;;;6.43;;
15183;SDS011;7693;49.266;7.104;2023-09-07T21:01:58;7.15;;;6.68;;
15183;SDS011;7693;49.266;7.104;2023-09-07T21:04:24;6.75;;;6.25;;
15183;SDS011;7693;49.266;7.104;2023-09-07T21:06:50;7.13;;;6.35;;
15183;SDS011;7693;49.266;7.104;2023-09-07T21:09:15;6.88;;;6.30;;
15183;SDS011;7693;49.266;7.104;2023-09-07T21:11:41;6.90;;;6.40;;
15183;SDS011;7693;49.266;7.104;2023-09-07T21:14:10;8.43;;;7.20;;
15183;SDS011;7693;49.266;7.104;2023-09-07T21:16:36;8.77;;;8.07;;
15183;SDS011;7693;49.266;7.104;2023-09-07T21:19:05;9.55;;;8.75;;
15183;SDS011;7693;49.266;7.104;2023-09-07T21:21:31;10.57;;;9.52;;
15183;SDS011;7693;49.266;7.104;2023-09-07T21:23:57;10.60;;;9.43;;
15183;SDS011;7693;49.266;7.104;2023-09-07T21:26:23;12.30;;;11.20;;
15183;SDS011;7693;49.266;7.104;2023-09-07T21:28:48;13.02;;;11.30;;
15183;SDS011;7693;49.266;7.104;2023-09-07T21:31:14;13.38;;;12.00;;
15183;SDS011;7693;49.266;7.104;2023-09-07T21:33:40;10.38;;;9.48;;
15183;SDS011;7693;49.266;7.104;2023-09-07T21:36:06;11.15;;;10.27;;
15183;SDS011;7693;49.266;7.104;2023-09-07T21:38:32;10.32;;;9.50;;
15183;SDS011;7693;49.266;7.104;2023-09-07T21:40:58;9.93;;;9.13;;
15183;SDS011;7693;49.266;7.104;2023-09-07T21:43:23;10.80;;;9.82;;
15183;SDS011;7693;49.266;7.104;2023-09-07T21:45:49;11.85;;;8.75;;
15183;SDS011;7693;49.266;7.104;2023-09-07T21:48:16;10.30;;;9.40;;
15183;SDS011;7693;49.266;7.104;2023-09-07T21:50:41;9.88;;;9.05;;
15183;SDS011;7693;49.266;7.104;2023-09-07T21:53:07;8.70;;;7.88;;
15183;SDS011;7693;49.266;7.104;2023-09-07T21:55:33;8.68;;;8.13;;
15183;SDS011;7693;49.266;7.104;2023-09-07T21:57:59;9.48;;;8.52;;
15183;SDS011;7693;49.266;7.104;2023-09-07T22:00:25;8.73;;;7.93;;
15183;SDS011;7693;49.266;7.104;2023-09-07T22:02:51;8.48;;;7.70;;
15183;SDS011;7693;49.266;7.104;2023-09-07T22:05:16;8.40;;;7.70;;
15183;SDS011;7693;49.266;7.104;2023-09-07T22:07:42;8.50;;;7.80;;
15183;SDS011;7693;49.266;7.104;2023-09-07T22:10:09;8.73;;;7.60;;
15183;SDS011;7693;49.266;7.104;2023-09-07T22:12:35;8.55;;;7.65;;
15183;SDS011;7693;49.266;7.104;2023-09-07T22:15:02;8.55;;;7.55;;
15183;SDS011;7693;49.266;7.104;2023-09-07T22:17:29;9.57;;;8.18;;
